Byrdstown, Tennessee
Current Conditions -  °F | °C
As of 4:56 AM on Friday 31 Oct 2014 (Local Time) from KEKQ Reporting Station
Haze Haze  
Wind Chill: 42°   Ceiling: Unl
Heat Index: 42°   Visibility: 6mi
Dew Point: 41°   Wind: 0mph
Humidity: 97%   Direction: NA
Pressure: 30"   Gusts: NA
Location:  36.57°N, 85.13°W
Report Text: KEKQ 310956Z AUTO 00000KT 6SM BR FEW055 06/05 A3000 RMK AO2 TSNO T00550050 SLP166
Loading
Personal Weather Stations






























Interactive Weather Map
Tropical Storm Tracking
New forecast layout! Learn more

10-Day Weather Forecast

Advertisements
Track Severe Weather on mobile